Cadyville, New York
Current Conditions -  °F | °C
As of 10:53 AM on Wednesday 26 Nov 2014 (Local Time) from KPBG Reporting Station
Scattered Clouds Scattered Clouds  
Wind Chill: 27°   Ceiling: Unl
Heat Index: 33°   Visibility: 10mi
Dew Point: 21°   Wind: 7mph
Humidity: 61%   Direction: 20°NNE
Pressure: 30.2"   Gusts: NA
Location:  44.7°N, 73.63°W
Report Text: KPBG 261553Z AUTO 02006KT 10SM SCT110 01/M06 A3020 RMK AO2 SLP230 T00061061
Loading
Personal Weather Stations






























Interactive Weather Map New forecast layout! Learn more

10-Day Weather Forecast

Advertisements
Track Severe Weather on mobile